sensor_id;sensor_type;location;lat;lon;timestamp;P1;durP1;ratioP1;P2;durP2;ratioP2
59416;SDS011;45222;52.458;20.914;2023-03-01T00:01:51;67.50;;;29.90;;
59416;SDS011;45222;52.458;20.914;2023-03-01T00:05:44;80.50;;;52.50;;
59416;SDS011;45222;52.458;20.914;2023-03-01T00:09:42;64.30;;;25.40;;
59416;SDS011;45222;52.458;20.914;2023-03-01T00:13:29;62.80;;;25.40;;
59416;SDS011;45222;52.458;20.914;2023-03-01T00:17:21;54.80;;;23.40;;
59416;SDS011;45222;52.458;20.914;2023-03-01T00:21:20;75.00;;;53.00;;
59416;SDS011;45222;52.458;20.914;2023-03-01T00:25:07;57.10;;;22.30;;
59416;SDS011;45222;52.458;20.914;2023-03-01T00:29:12;72.00;;;51.90;;
59416;SDS011;45222;52.458;20.914;2023-03-01T00:32:58;55.40;;;23.90;;
59416;SDS011;45222;52.458;20.914;2023-03-01T00:36:49;66.40;;;27.60;;
59416;SDS011;45222;52.458;20.914;2023-03-01T00:40:48;65.30;;;46.70;;
59416;SDS011;45222;52.458;20.914;2023-03-01T00:44:40;55.10;;;23.50;;
59416;SDS011;45222;52.458;20.914;2023-03-01T00:48:39;58.20;;;23.10;;
59416;SDS011;45222;52.458;20.914;2023-03-01T00:52:24;56.80;;;22.70;;
59416;SDS011;45222;52.458;20.914;2023-03-01T00:56:15;56.50;;;23.10;;
59416;SDS011;45222;52.458;20.914;2023-03-01T01:00:14;55.90;;;21.60;;
59416;SDS011;45222;52.458;20.914;2023-03-01T01:04:01;54.70;;;22.00;;
59416;SDS011;45222;52.458;20.914;2023-03-01T01:07:54;56.60;;;22.40;;
59416;SDS011;45222;52.458;20.914;2023-03-01T01:11:52;52.40;;;22.20;;
59416;SDS011;45222;52.458;20.914;2023-03-01T01:15:38;46.30;;;19.50;;
59416;SDS011;45222;52.458;20.914;2023-03-01T01:19:30;56.40;;;21.90;;
59416;SDS011;45222;52.458;20.914;2023-03-01T01:23:22;55.10;;;20.40;;
59416;SDS011;45222;52.458;20.914;2023-03-01T01:27:21;51.60;;;21.30;;
59416;SDS011;45222;52.458;20.914;2023-03-01T01:31:13;54.50;;;20.90;;
59416;SDS011;45222;52.458;20.914;2023-03-01T01:35:11;57.40;;;22.20;;
59416;SDS011;45222;52.458;20.914;2023-03-01T01:38:57;62.40;;;26.60;;
59416;SDS011;45222;52.458;20.914;2023-03-01T01:42:49;70.20;;;30.60;;
59416;SDS011;45222;52.458;20.914;2023-03-01T01:46:49;64.00;;;28.00;;
59416;SDS011;45222;52.458;20.914;2023-03-01T01:50:38;63.00;;;26.10;;
59416;SDS011;45222;52.458;20.914;2023-03-01T01:54:31;62.40;;;24.20;;
59416;SDS011;45222;52.458;20.914;2023-03-01T02:02:44;61.90;;;24.60;;
59416;SDS011;45222;52.458;20.914;2023-03-01T02:06:33;55.90;;;22.50;;
59416;SDS011;45222;52.458;20.914;2023-03-01T02:10:42;53.90;;;21.70;;
59416;SDS011;45222;52.458;20.914;2023-03-01T02:14:29;54.40;;;21.80;;
59416;SDS011;45222;52.458;20.914;2023-03-01T02:18:34;49.90;;;21.50;;
59416;SDS011;45222;52.458;20.914;2023-03-01T02:22:23;47.60;;;19.70;;
59416;SDS011;45222;52.458;20.914;2023-03-01T02:26:19;54.90;;;22.00;;
59416;SDS011;45222;52.458;20.914;2023-03-01T02:30:23;72.40;;;52.20;;
59416;SDS011;45222;52.458;20.914;2023-03-01T02:34:21;52.10;;;21.90;;
59416;SDS011;45222;52.458;20.914;2023-03-01T02:41:53;72.70;;;28.80;;
59416;SDS011;45222;52.458;20.914;2023-03-01T02:45:43;71.90;;;29.50;;
59416;SDS011;45222;52.458;20.914;2023-03-01T02:49:34;55.40;;;22.60;;
59416;SDS011;45222;52.458;20.914;2023-03-01T02:53:22;57.80;;;41.50;;
59416;SDS011;45222;52.458;20.914;2023-03-01T02:57:18;46.70;;;20.20;;
59416;SDS011;45222;52.458;20.914;2023-03-01T03:01:05;49.20;;;19.40;;
59416;SDS011;45222;52.458;20.914;2023-03-01T03:04:52;62.30;;;44.80;;
59416;SDS011;45222;52.458;20.914;2023-03-01T03:08:38;46.10;;;18.60;;
59416;SDS011;45222;52.458;20.914;2023-03-01T03:12:23;45.90;;;19.00;;
59416;SDS011;45222;52.458;20.914;2023-03-01T03:16:08;47.80;;;18.20;;
59416;SDS011;45222;52.458;20.914;2023-03-01T03:19:54;45.00;;;18.80;;
59416;SDS011;45222;52.458;20.914;2023-03-01T03:23:39;53.50;;;20.30;;
59416;SDS011;45222;52.458;20.914;2023-03-01T03:27:24;51.60;;;20.80;;
59416;SDS011;45222;52.458;20.914;2023-03-01T03:31:10;53.40;;;21.90;;
59416;SDS011;45222;52.458;20.914;2023-03-01T03:34:55;58.70;;;25.20;;
59416;SDS011;45222;52.458;20.914;2023-03-01T03:38:40;65.50;;;27.60;;
59416;SDS011;45222;52.458;20.914;2023-03-01T03:42:25;70.20;;;29.00;;
59416;SDS011;45222;52.458;20.914;2023-03-01T03:46:11;60.80;;;24.10;;
59416;SDS011;45222;52.458;20.914;2023-03-01T03:49:56;46.60;;;20.00;;
59416;SDS011;45222;52.458;20.914;2023-03-01T03:53:42;46.80;;;20.20;;
59416;SDS011;45222;52.458;20.914;2023-03-01T03:57:28;47.90;;;19.40;;
59416;SDS011;45222;52.458;20.914;2023-03-01T04:01:13;47.40;;;18.30;;
59416;SDS011;45222;52.458;20.914;2023-03-01T04:04:58;39.20;;;14.80;;
59416;SDS011;45222;52.458;20.914;2023-03-01T04:08:44;59.50;;;42.80;;
59416;SDS011;45222;52.458;20.914;2023-03-01T04:12:29;45.90;;;21.30;;
59416;SDS011;45222;52.458;20.914;2023-03-01T04:16:17;63.50;;;24.60;;
59416;SDS011;45222;52.458;20.914;2023-03-01T04:20:03;64.50;;;27.60;;
59416;SDS011;45222;52.458;20.914;2023-03-01T04:23:50;49.90;;;22.70;;
59416;SDS011;45222;52.458;20.914;2023-03-01T04:27:36;44.60;;;19.60;;
59416;SDS011;45222;52.458;20.914;2023-03-01T04:31:21;58.40;;;40.10;;
59416;SDS011;45222;52.458;20.914;2023-03-01T04:35:07;42.80;;;17.50;;
59416;SDS011;45222;52.458;20.914;2023-03-01T04:38:53;45.80;;;17.90;;
59416;SDS011;45222;52.458;20.914;2023-03-01T04:42:39;42.10;;;17.60;;
59416;SDS011;45222;52.458;20.914;2023-03-01T04:46:25;51.20;;;19.00;;
59416;SDS011;45222;52.458;20.914;2023-03-01T04:50:11;45.60;;;17.50;;
59416;SDS011;45222;52.458;20.914;2023-03-01T04:53:58;41.00;;;17.60;;
59416;SDS011;45222;52.458;20.914;2023-03-01T04:57:44;45.20;;;17.00;;
59416;SDS011;45222;52.458;20.914;2023-03-01T05:01:30;47.10;;;17.30;;
59416;SDS011;45222;52.458;20.914;2023-03-01T05:05:16;49.60;;;20.30;;
59416;SDS011;45222;52.458;20.914;2023-03-01T05:09:01;53.00;;;23.80;;
59416;SDS011;45222;52.458;20.914;2023-03-01T05:12:47;64.10;;;25.50;;
59416;SDS011;45222;52.458;20.914;2023-03-01T05:16:32;69.00;;;26.80;;
59416;SDS011;45222;52.458;20.914;2023-03-01T05:20:18;49.30;;;21.80;;
59416;SDS011;45222;52.458;20.914;2023-03-01T05:24:07;51.10;;;21.80;;
59416;SDS011;45222;52.458;20.914;2023-03-01T05:27:55;53.90;;;22.20;;
59416;SDS011;45222;52.458;20.914;2023-03-01T05:31:40;47.90;;;19.80;;
59416;SDS011;45222;52.458;20.914;2023-03-01T05:35:26;50.80;;;19.50;;
59416;SDS011;45222;52.458;20.914;2023-03-01T05:39:12;48.60;;;19.70;;
59416;SDS011;45222;52.458;20.914;2023-03-01T05:42:58;51.70;;;19.40;;
59416;SDS011;45222;52.458;20.914;2023-03-01T05:46:43;52.50;;;18.60;;
59416;SDS011;45222;52.458;20.914;2023-03-01T05:50:29;49.90;;;20.60;;
59416;SDS011;45222;52.458;20.914;2023-03-01T05:54:17;50.50;;;18.80;;
59416;SDS011;45222;52.458;20.914;2023-03-01T05:58:03;50.60;;;19.40;;
59416;SDS011;45222;52.458;20.914;2023-03-01T06:01:49;47.60;;;19.10;;
59416;SDS011;45222;52.458;20.914;2023-03-01T06:05:35;55.60;;;22.70;;
59416;SDS011;45222;52.458;20.914;2023-03-01T06:09:20;56.10;;;23.90;;
59416;SDS011;45222;52.458;20.914;2023-03-01T06:13:06;64.10;;;26.40;;
59416;SDS011;45222;52.458;20.914;2023-03-01T06:16:51;70.60;;;28.80;;
59416;SDS011;45222;52.458;20.914;2023-03-01T06:20:36;50.00;;;22.30;;
59416;SDS011;45222;52.458;20.914;2023-03-01T06:24:21;57.70;;;40.60;;
59416;SDS011;45222;52.458;20.914;2023-03-01T06:28:06;43.00;;;17.10;;
59416;SDS011;45222;52.458;20.914;2023-03-01T06:31:52;44.90;;;16.40;;
59416;SDS011;45222;52.458;20.914;2023-03-01T06:35:37;39.30;;;17.00;;
59416;SDS011;45222;52.458;20.914;2023-03-01T06:39:22;38.70;;;15.20;;
59416;SDS011;45222;52.458;20.914;2023-03-01T06:43:08;57.00;;;40.10;;
59416;SDS011;45222;52.458;20.914;2023-03-01T06:46:53;46.80;;;20.30;;
59416;SDS011;45222;52.458;20.914;2023-03-01T06:50:38;58.30;;;23.90;;
59416;SDS011;45222;52.458;20.914;2023-03-01T06:54:24;61.10;;;26.70;;
59416;SDS011;45222;52.458;20.914;2023-03-01T06:58:09;49.00;;;35.20;;
59416;SDS011;45222;52.458;20.914;2023-03-01T07:01:54;48.90;;;34.50;;
59416;SDS011;45222;52.458;20.914;2023-03-01T07:05:40;45.30;;;20.20;;
59416;SDS011;45222;52.458;20.914;2023-03-01T07:09:25;55.10;;;38.60;;
59416;SDS011;45222;52.458;20.914;2023-03-01T07:13:11;54.50;;;38.40;;
59416;SDS011;45222;52.458;20.914;2023-03-01T07:16:56;41.30;;;17.70;;
59416;SDS011;45222;52.458;20.914;2023-03-01T07:20:41;35.40;;;15.90;;
59416;SDS011;45222;52.458;20.914;2023-03-01T07:24:27;37.50;;;15.80;;
59416;SDS011;45222;52.458;20.914;2023-03-01T07:28:12;48.10;;;19.90;;
59416;SDS011;45222;52.458;20.914;2023-03-01T07:31:58;52.20;;;22.20;;
59416;SDS011;45222;52.458;20.914;2023-03-01T07:35:43;51.00;;;21.40;;
59416;SDS011;45222;52.458;20.914;2023-03-01T07:39:28;43.00;;;19.40;;
59416;SDS011;45222;52.458;20.914;2023-03-01T07:43:13;45.50;;;20.00;;
59416;SDS011;45222;52.458;20.914;2023-03-01T07:46:59;45.80;;;34.50;;
59416;SDS011;45222;52.458;20.914;2023-03-01T07:50:44;42.70;;;18.00;;
59416;SDS011;45222;52.458;20.914;2023-03-01T07:54:29;39.30;;;17.60;;
59416;SDS011;45222;52.458;20.914;2023-03-01T07:58:14;38.00;;;16.30;;
59416;SDS011;45222;52.458;20.914;2023-03-01T08:01:59;39.90;;;16.80;;
59416;SDS011;45222;52.458;20.914;2023-03-01T08:05:45;35.90;;;16.00;;
59416;SDS011;45222;52.458;20.914;2023-03-01T08:09:30;43.30;;;17.60;;
59416;SDS011;45222;52.458;20.914;2023-03-01T08:13:18;42.20;;;29.20;;
59416;SDS011;45222;52.458;20.914;2023-03-01T08:17:05;40.60;;;29.40;;
59416;SDS011;45222;52.458;20.914;2023-03-01T08:20:51;39.90;;;28.40;;
59416;SDS011;45222;52.458;20.914;2023-03-01T08:24:36;39.50;;;28.50;;
59416;SDS011;45222;52.458;20.914;2023-03-01T08:28:21;41.30;;;29.30;;
59416;SDS011;45222;52.458;20.914;2023-03-01T08:32:06;39.50;;;29.00;;
59416;SDS011;45222;52.458;20.914;2023-03-01T08:35:52;43.80;;;29.90;;
59416;SDS011;45222;52.458;20.914;2023-03-01T08:39:45;47.30;;;33.30;;
59416;SDS011;45222;52.458;20.914;2023-03-01T08:43:31;39.40;;;27.50;;
59416;SDS011;45222;52.458;20.914;2023-03-01T08:47:16;40.70;;;28.10;;
59416;SDS011;45222;52.458;20.914;2023-03-01T08:51:07;33.70;;;15.90;;
59416;SDS011;45222;52.458;20.914;2023-03-01T08:54:53;36.00;;;26.10;;
59416;SDS011;45222;52.458;20.914;2023-03-01T08:58:39;31.50;;;14.90;;
59416;SDS011;45222;52.458;20.914;2023-03-01T09:02:27;38.40;;;27.40;;
59416;SDS011;45222;52.458;20.914;2023-03-01T09:06:13;35.80;;;15.20;;
59416;SDS011;45222;52.458;20.914;2023-03-01T09:09:59;31.60;;;23.30;;
59416;SDS011;45222;52.458;20.914;2023-03-01T09:13:44;29.10;;;20.20;;
59416;SDS011;45222;52.458;20.914;2023-03-01T09:17:30;30.80;;;13.30;;
59416;SDS011;45222;52.458;20.914;2023-03-01T09:21:15;27.10;;;11.90;;
59416;SDS011;45222;52.458;20.914;2023-03-01T09:25:02;27.20;;;18.70;;
59416;SDS011;45222;52.458;20.914;2023-03-01T09:28:49;27.90;;;19.80;;
59416;SDS011;45222;52.458;20.914;2023-03-01T09:32:36;27.20;;;20.10;;
59416;SDS011;45222;52.458;20.914;2023-03-01T09:36:26;31.10;;;21.70;;
59416;SDS011;45222;52.458;20.914;2023-03-01T09:40:14;30.20;;;21.60;;
59416;SDS011;45222;52.458;20.914;2023-03-01T09:44:02;25.90;;;10.70;;
59416;SDS011;45222;52.458;20.914;2023-03-01T09:47:52;24.40;;;11.80;;
59416;SDS011;45222;52.458;20.914;2023-03-01T09:51:38;25.70;;;18.10;;
59416;SDS011;45222;52.458;20.914;2023-03-01T09:55:25;29.00;;;19.90;;
59416;SDS011;45222;52.458;20.914;2023-03-01T09:59:18;35.60;;;16.60;;
59416;SDS011;45222;52.458;20.914;2023-03-01T10:03:10;36.90;;;25.00;;
59416;SDS011;45222;52.458;20.914;2023-03-01T10:07:05;30.40;;;22.40;;
59416;SDS011;45222;52.458;20.914;2023-03-01T10:10:58;30.20;;;22.20;;
59416;SDS011;45222;52.458;20.914;2023-03-01T10:14:49;27.90;;;19.80;;
59416;SDS011;45222;52.458;20.914;2023-03-01T10:18:39;28.30;;;19.90;;
59416;SDS011;45222;52.458;20.914;2023-03-01T10:22:26;28.70;;;20.50;;
59416;SDS011;45222;52.458;20.914;2023-03-01T10:26:16;28.60;;;20.50;;
59416;SDS011;45222;52.458;20.914;2023-03-01T10:30:13;26.50;;;13.20;;
59416;SDS011;45222;52.458;20.914;2023-03-01T10:34:04;24.70;;;10.80;;
59416;SDS011;45222;52.458;20.914;2023-03-01T10:37:59;28.80;;;13.10;;
59416;SDS011;45222;52.458;20.914;2023-03-01T10:41:55;30.50;;;14.10;;
59416;SDS011;45222;52.458;20.914;2023-03-01T10:45:43;29.20;;;20.40;;
59416;SDS011;45222;52.458;20.914;2023-03-01T10:49:28;25.40;;;18.10;;
59416;SDS011;45222;52.458;20.914;2023-03-01T10:53:20;29.40;;;22.00;;
59416;SDS011;45222;52.458;20.914;2023-03-01T10:57:10;28.40;;;19.70;;
59416;SDS011;45222;52.458;20.914;2023-03-01T11:01:25;24.30;;;17.30;;
59416;SDS011;45222;52.458;20.914;2023-03-01T11:05:17;29.30;;;20.00;;
59416;SDS011;45222;52.458;20.914;2023-03-01T11:09:14;28.90;;;20.30;;
59416;SDS011;45222;52.458;20.914;2023-03-01T11:13:08;24.60;;;18.20;;
59416;SDS011;45222;52.458;20.914;2023-03-01T11:17:00;27.70;;;20.70;;
59416;SDS011;45222;52.458;20.914;2023-03-01T11:20:47;23.90;;;18.40;;
59416;SDS011;45222;52.458;20.914;2023-03-01T11:24:38;27.80;;;20.60;;
59416;SDS011;45222;52.458;20.914;2023-03-01T11:28:25;27.80;;;20.60;;
59416;SDS011;45222;52.458;20.914;2023-03-01T11:32:13;28.20;;;21.30;;
59416;SDS011;45222;52.458;20.914;2023-03-01T11:36:01;28.70;;;20.30;;
59416;SDS011;45222;52.458;20.914;2023-03-01T11:39:55;34.70;;;23.70;;
59416;SDS011;45222;52.458;20.914;2023-03-01T11:43:50;26.00;;;18.80;;
59416;SDS011;45222;52.458;20.914;2023-03-01T11:47:45;24.80;;;19.40;;
59416;SDS011;45222;52.458;20.914;2023-03-01T11:51:51;25.90;;;19.20;;
59416;SDS011;45222;52.458;20.914;2023-03-01T11:55:49;29.10;;;21.90;;
59416;SDS011;45222;52.458;20.914;2023-03-01T11:59:47;24.60;;;19.30;;
59416;SDS011;45222;52.458;20.914;2023-03-01T12:03:58;23.40;;;18.10;;
59416;SDS011;45222;52.458;20.914;2023-03-01T12:07:58;23.50;;;16.80;;
59416;SDS011;45222;52.458;20.914;2023-03-01T12:11:55;22.40;;;17.30;;
59416;SDS011;45222;52.458;20.914;2023-03-01T12:15:52;24.60;;;18.10;;
59416;SDS011;45222;52.458;20.914;2023-03-01T12:24:12;24.10;;;18.40;;
59416;SDS011;45222;52.458;20.914;2023-03-01T12:28:23;26.70;;;20.20;;
59416;SDS011;45222;52.458;20.914;2023-03-01T12:32:27;26.00;;;19.60;;
59416;SDS011;45222;52.458;20.914;2023-03-01T12:40:45;28.10;;;20.60;;
59416;SDS011;45222;52.458;20.914;2023-03-01T12:44:47;27.10;;;21.10;;
59416;SDS011;45222;52.458;20.914;2023-03-01T12:48:50;25.90;;;20.70;;
59416;SDS011;45222;52.458;20.914;2023-03-01T12:52:44;26.90;;;21.00;;
59416;SDS011;45222;52.458;20.914;2023-03-01T12:56:35;26.00;;;20.50;;
59416;SDS011;45222;52.458;20.914;2023-03-01T13:00:24;24.50;;;19.60;;
59416;SDS011;45222;52.458;20.914;2023-03-01T13:04:20;25.00;;;19.50;;
59416;SDS011;45222;52.458;20.914;2023-03-01T13:08:14;24.60;;;18.40;;
59416;SDS011;45222;52.458;20.914;2023-03-01T13:20:34;20.50;;;15.60;;
59416;SDS011;45222;52.458;20.914;2023-03-01T13:24:33;21.10;;;16.50;;
59416;SDS011;45222;52.458;20.914;2023-03-01T13:32:41;21.90;;;16.00;;
59416;SDS011;45222;52.458;20.914;2023-03-01T13:44:42;21.90;;;17.00;;
59416;SDS011;45222;52.458;20.914;2023-03-01T13:48:29;21.90;;;16.30;;
59416;SDS011;45222;52.458;20.914;2023-03-01T13:52:29;23.70;;;16.90;;
59416;SDS011;45222;52.458;20.914;2023-03-01T13:56:23;23.50;;;17.60;;
59416;SDS011;45222;52.458;20.914;2023-03-01T14:00:24;22.90;;;16.60;;
59416;SDS011;45222;52.458;20.914;2023-03-01T14:04:18;23.60;;;18.60;;
59416;SDS011;45222;52.458;20.914;2023-03-01T14:08:14;25.00;;;19.40;;
59416;SDS011;45222;52.458;20.914;2023-03-01T14:16:14;26.90;;;19.90;;
59416;SDS011;45222;52.458;20.914;2023-03-01T14:20:11;23.10;;;18.70;;
59416;SDS011;45222;52.458;20.914;2023-03-01T14:24:00;24.00;;;18.70;;
59416;SDS011;45222;52.458;20.914;2023-03-01T14:27:45;24.00;;;18.90;;
59416;SDS011;45222;52.458;20.914;2023-03-01T14:31:38;22.40;;;17.90;;
59416;SDS011;45222;52.458;20.914;2023-03-01T14:35:26;23.20;;;19.00;;
59416;SDS011;45222;52.458;20.914;2023-03-01T14:39:17;26.50;;;19.80;;
59416;SDS011;45222;52.458;20.914;2023-03-01T14:43:09;25.60;;;21.00;;
59416;SDS011;45222;52.458;20.914;2023-03-01T14:47:00;28.10;;;21.20;;
59416;SDS011;45222;52.458;20.914;2023-03-01T14:50:46;28.40;;;21.10;;
59416;SDS011;45222;52.458;20.914;2023-03-01T14:54:35;24.80;;;20.30;;
59416;SDS011;45222;52.458;20.914;2023-03-01T14:58:24;32.40;;;23.50;;
59416;SDS011;45222;52.458;20.914;2023-03-01T15:02:11;29.30;;;23.00;;
59416;SDS011;45222;52.458;20.914;2023-03-01T15:06:03;26.30;;;20.50;;
59416;SDS011;45222;52.458;20.914;2023-03-01T15:09:50;27.40;;;21.20;;
59416;SDS011;45222;52.458;20.914;2023-03-01T15:13:36;25.40;;;20.40;;
59416;SDS011;45222;52.458;20.914;2023-03-01T15:17:22;29.40;;;23.30;;
59416;SDS011;45222;52.458;20.914;2023-03-01T15:21:18;28.60;;;21.50;;
59416;SDS011;45222;52.458;20.914;2023-03-01T15:25:13;26.80;;;21.00;;
59416;SDS011;45222;52.458;20.914;2023-03-01T15:29:00;27.80;;;21.40;;
59416;SDS011;45222;52.458;20.914;2023-03-01T15:32:45;26.20;;;21.30;;
59416;SDS011;45222;52.458;20.914;2023-03-01T15:36:32;28.00;;;22.80;;
59416;SDS011;45222;52.458;20.914;2023-03-01T15:40:23;31.80;;;24.70;;
59416;SDS011;45222;52.458;20.914;2023-03-01T15:44:15;37.00;;;25.10;;
59416;SDS011;45222;52.458;20.914;2023-03-01T15:48:02;33.10;;;29.40;;
59416;SDS011;45222;52.458;20.914;2023-03-01T15:51:49;35.50;;;26.50;;
59416;SDS011;45222;52.458;20.914;2023-03-01T15:55:35;44.90;;;30.00;;
59416;SDS011;45222;52.458;20.914;2023-03-01T15:59:21;38.20;;;28.20;;
59416;SDS011;45222;52.458;20.914;2023-03-01T16:03:08;35.60;;;27.40;;
59416;SDS011;45222;52.458;20.914;2023-03-01T16:06:55;38.00;;;27.80;;
59416;SDS011;45222;52.458;20.914;2023-03-01T16:10:40;56.10;;;33.30;;
59416;SDS011;45222;52.458;20.914;2023-03-01T16:14:27;45.10;;;32.10;;
59416;SDS011;45222;52.458;20.914;2023-03-01T16:18:12;44.90;;;30.90;;
59416;SDS011;45222;52.458;20.914;2023-03-01T16:21:57;40.80;;;24.60;;
59416;SDS011;45222;52.458;20.914;2023-03-01T16:25:43;36.00;;;23.50;;
59416;SDS011;45222;52.458;20.914;2023-03-01T16:29:28;38.50;;;24.10;;
59416;SDS011;45222;52.458;20.914;2023-03-01T16:33:14;36.70;;;23.90;;
59416;SDS011;45222;52.458;20.914;2023-03-01T16:36:59;36.90;;;26.30;;
59416;SDS011;45222;52.458;20.914;2023-03-01T16:40:46;38.30;;;26.20;;
59416;SDS011;45222;52.458;20.914;2023-03-01T16:44:33;39.60;;;28.20;;
59416;SDS011;45222;52.458;20.914;2023-03-01T16:48:18;46.50;;;30.80;;
59416;SDS011;45222;52.458;20.914;2023-03-01T16:52:04;41.50;;;28.60;;
59416;SDS011;45222;52.458;20.914;2023-03-01T16:55:53;42.00;;;29.00;;
59416;SDS011;45222;52.458;20.914;2023-03-01T16:59:39;45.30;;;29.20;;
59416;SDS011;45222;52.458;20.914;2023-03-01T17:03:25;50.90;;;22.40;;
59416;SDS011;45222;52.458;20.914;2023-03-01T17:07:12;72.00;;;54.70;;
59416;SDS011;45222;52.458;20.914;2023-03-01T17:11:02;65.10;;;48.90;;
59416;SDS011;45222;52.458;20.914;2023-03-01T17:14:49;57.70;;;43.60;;
59416;SDS011;45222;52.458;20.914;2023-03-01T17:18:34;59.30;;;41.90;;
59416;SDS011;45222;52.458;20.914;2023-03-01T17:22:21;62.20;;;44.70;;
59416;SDS011;45222;52.458;20.914;2023-03-01T17:26:06;58.70;;;25.80;;
59416;SDS011;45222;52.458;20.914;2023-03-01T17:29:52;59.90;;;26.20;;
59416;SDS011;45222;52.458;20.914;2023-03-01T17:33:37;68.80;;;44.80;;
59416;SDS011;45222;52.458;20.914;2023-03-01T17:37:23;76.10;;;28.80;;
59416;SDS011;45222;52.458;20.914;2023-03-01T17:41:09;67.00;;;26.80;;
59416;SDS011;45222;52.458;20.914;2023-03-01T17:44:54;64.00;;;25.60;;
59416;SDS011;45222;52.458;20.914;2023-03-01T17:48:40;49.90;;;20.50;;
59416;SDS011;45222;52.458;20.914;2023-03-01T17:52:26;34.90;;;16.20;;
59416;SDS011;45222;52.458;20.914;2023-03-01T17:56:11;39.90;;;17.70;;
59416;SDS011;45222;52.458;20.914;2023-03-01T17:59:56;55.40;;;37.80;;
59416;SDS011;45222;52.458;20.914;2023-03-01T18:03:42;56.70;;;23.60;;
59416;SDS011;45222;52.458;20.914;2023-03-01T18:07:28;57.90;;;25.00;;
59416;SDS011;45222;52.458;20.914;2023-03-01T18:11:14;65.50;;;40.40;;
59416;SDS011;45222;52.458;20.914;2023-03-01T18:15:00;62.90;;;26.50;;
59416;SDS011;45222;52.458;20.914;2023-03-01T18:18:45;56.00;;;25.00;;
59416;SDS011;45222;52.458;20.914;2023-03-01T18:22:32;83.60;;;31.40;;
59416;SDS011;45222;52.458;20.914;2023-03-01T18:26:17;79.30;;;27.60;;
59416;SDS011;45222;52.458;20.914;2023-03-01T18:30:05;142.10;;;46.20;;
59416;SDS011;45222;52.458;20.914;2023-03-01T18:33:55;195.20;;;108.10;;
59416;SDS011;45222;52.458;20.914;2023-03-01T18:37:41;113.80;;;40.50;;
59416;SDS011;45222;52.458;20.914;2023-03-01T18:41:26;103.40;;;38.90;;
59416;SDS011;45222;52.458;20.914;2023-03-01T18:45:12;91.50;;;58.90;;
59416;SDS011;45222;52.458;20.914;2023-03-01T18:49:00;78.10;;;31.80;;
59416;SDS011;45222;52.458;20.914;2023-03-01T18:52:45;82.70;;;32.70;;
59416;SDS011;45222;52.458;20.914;2023-03-01T18:56:31;89.20;;;56.00;;
59416;SDS011;45222;52.458;20.914;2023-03-01T19:00:19;89.00;;;55.00;;
59416;SDS011;45222;52.458;20.914;2023-03-01T19:04:06;93.40;;;34.70;;
59416;SDS011;45222;52.458;20.914;2023-03-01T19:07:53;111.90;;;68.70;;
59416;SDS011;45222;52.458;20.914;2023-03-01T19:11:38;90.20;;;36.70;;
59416;SDS011;45222;52.458;20.914;2023-03-01T19:15:23;110.70;;;64.20;;
59416;SDS011;45222;52.458;20.914;2023-03-01T19:19:09;92.80;;;58.80;;
59416;SDS011;45222;52.458;20.914;2023-03-01T19:22:55;80.60;;;32.10;;
59416;SDS011;45222;52.458;20.914;2023-03-01T19:26:40;97.50;;;58.80;;
59416;SDS011;45222;52.458;20.914;2023-03-01T19:30:26;78.60;;;31.10;;
59416;SDS011;45222;52.458;20.914;2023-03-01T19:34:11;97.50;;;61.70;;
59416;SDS011;45222;52.458;20.914;2023-03-01T19:37:56;111.90;;;67.40;;
59416;SDS011;45222;52.458;20.914;2023-03-01T19:41:41;90.30;;;34.80;;
59416;SDS011;45222;52.458;20.914;2023-03-01T19:45:27;76.90;;;33.90;;
59416;SDS011;45222;52.458;20.914;2023-03-01T19:49:15;79.70;;;35.50;;
59416;SDS011;45222;52.458;20.914;2023-03-01T19:53:00;95.70;;;35.00;;
59416;SDS011;45222;52.458;20.914;2023-03-01T19:56:46;99.60;;;61.60;;
59416;SDS011;45222;52.458;20.914;2023-03-01T20:00:33;105.60;;;65.90;;
59416;SDS011;45222;52.458;20.914;2023-03-01T20:04:18;80.80;;;32.60;;
59416;SDS011;45222;52.458;20.914;2023-03-01T20:08:04;106.40;;;67.20;;
59416;SDS011;45222;52.458;20.914;2023-03-01T20:11:51;88.10;;;33.90;;
59416;SDS011;45222;52.458;20.914;2023-03-01T20:15:38;88.10;;;36.60;;
59416;SDS011;45222;52.458;20.914;2023-03-01T20:19:25;93.10;;;37.50;;
59416;SDS011;45222;52.458;20.914;2023-03-01T20:23:11;103.80;;;66.00;;
59416;SDS011;45222;52.458;20.914;2023-03-01T20:26:56;89.30;;;36.30;;
59416;SDS011;45222;52.458;20.914;2023-03-01T20:30:42;112.20;;;75.00;;
59416;SDS011;45222;52.458;20.914;2023-03-01T20:34:27;102.30;;;39.30;;
59416;SDS011;45222;52.458;20.914;2023-03-01T20:38:13;91.30;;;35.30;;
59416;SDS011;45222;52.458;20.914;2023-03-01T20:41:58;113.20;;;39.00;;
59416;SDS011;45222;52.458;20.914;2023-03-01T20:45:44;104.10;;;40.80;;
59416;SDS011;45222;52.458;20.914;2023-03-01T20:49:29;132.90;;;86.10;;
59416;SDS011;45222;52.458;20.914;2023-03-01T20:53:15;109.30;;;41.30;;
59416;SDS011;45222;52.458;20.914;2023-03-01T20:57:00;107.90;;;46.20;;
59416;SDS011;45222;52.458;20.914;2023-03-01T21:00:48;133.60;;;79.90;;
59416;SDS011;45222;52.458;20.914;2023-03-01T21:04:34;131.60;;;82.20;;
59416;SDS011;45222;52.458;20.914;2023-03-01T21:08:20;140.30;;;87.50;;
59416;SDS011;45222;52.458;20.914;2023-03-01T21:12:05;153.10;;;92.30;;
59416;SDS011;45222;52.458;20.914;2023-03-01T21:15:52;120.90;;;44.40;;
59416;SDS011;45222;52.458;20.914;2023-03-01T21:19:39;128.00;;;44.90;;
59416;SDS011;45222;52.458;20.914;2023-03-01T21:23:27;168.90;;;96.20;;
59416;SDS011;45222;52.458;20.914;2023-03-01T21:27:13;130.70;;;45.70;;
59416;SDS011;45222;52.458;20.914;2023-03-01T21:31:02;183.60;;;105.90;;
59416;SDS011;45222;52.458;20.914;2023-03-01T21:34:49;172.60;;;97.30;;
59416;SDS011;45222;52.458;20.914;2023-03-01T21:38:35;186.30;;;104.00;;
59416;SDS011;45222;52.458;20.914;2023-03-01T21:42:22;119.20;;;45.60;;
59416;SDS011;45222;52.458;20.914;2023-03-01T21:46:08;155.70;;;50.50;;
59416;SDS011;45222;52.458;20.914;2023-03-01T21:49:55;179.80;;;105.60;;
59416;SDS011;45222;52.458;20.914;2023-03-01T21:53:41;157.60;;;53.70;;
59416;SDS011;45222;52.458;20.914;2023-03-01T21:57:26;147.10;;;51.70;;
59416;SDS011;45222;52.458;20.914;2023-03-01T22:01:15;136.40;;;51.40;;
59416;SDS011;45222;52.458;20.914;2023-03-01T22:05:01;149.80;;;53.00;;
59416;SDS011;45222;52.458;20.914;2023-03-01T22:08:47;133.30;;;49.40;;
59416;SDS011;45222;52.458;20.914;2023-03-01T22:12:34;155.60;;;58.10;;
59416;SDS011;45222;52.458;20.914;2023-03-01T22:16:22;161.90;;;61.80;;
59416;SDS011;45222;52.458;20.914;2023-03-01T22:20:10;165.60;;;63.90;;
59416;SDS011;45222;52.458;20.914;2023-03-01T22:23:56;133.40;;;47.80;;
59416;SDS011;45222;52.458;20.914;2023-03-01T22:27:42;177.30;;;105.00;;
59416;SDS011;45222;52.458;20.914;2023-03-01T22:31:28;164.80;;;96.90;;
59416;SDS011;45222;52.458;20.914;2023-03-01T22:35:13;125.90;;;44.40;;